Terminal Aerodrome Forecast
Issued by NWS

Home | Current Version | Previous Version | Text Only | Print | Product List | Glossary On
Versions: 1 2 3 4 5 6 7 8 9 10 11 12 13 14 15 16 17 18 19
000
FTAK31 PANC 281740
TAFADQ
TAF
PADQ 281740Z 2818/2918 09005KT P6SM BKN020
      TEMPO 2818/2820 SCT020 BKN100
     FM282000 08007KT P6SM FEW020 SCT040 BKN100
     FM290500 30005KT P6SM SCT070 BKN120=

USA.gov is the U.S. government's official web portal to all federal, state and local government web resources and services.